Terminal Aerodrome Forecast
Issued by NWS Austin/San Antonio, TX

Home | Current Version | Previous Version | Text Only | Print | Product List | Glossary On
Versions: 1 2 3 4 5 6 7 8 9 10 11 12 13 14 15 16 17 18 19 20 21
000
FTUS44 KEWX 290530
TAFDRT
TAF
KDRT 290530Z 2906/3006 12008KT P6SM SKC
     FM291200 10007KT P6SM SCT020
     FM291500 14013KT P6SM SKC=

USA.gov is the U.S. government's official web portal to all federal, state and local government web resources and services.